Terminal Aerodrome Forecast
Issued by NWS

Home | Current Version | Previous Version | Text Only | Print | Product List | Glossary Off
Versions: 1 2 3 4 5 6 7 8 9 10 11 12 13

000
FTUS42 KMHX 292300
TAFISO
TAF
KISO 292332Z 3000/3024 19007KT P6SM BKN080
     FM300600 25008KT P6SM OVC050
     FM301400 32018G28KT P6SM SCT050
     FM302200 32009KT P6SM SKC
      AMD LTD TO CLD VIS AND WIND=

USA.gov is the U.S. government's official web portal to all federal, state and local government web resources and services.